sensor_id;sensor_type;location;lat;lon;timestamp;pressure;altitude;pressure_sealevel;temperature;humidity
42411;BME280;28056;51.112;0.984;2023-05-22T00:04:49;100963.14;;;11.63;63.95
42411;BME280;28056;51.112;0.984;2023-05-22T00:07:16;100960.71;;;12.04;64.72
42411;BME280;28056;51.112;0.984;2023-05-22T00:09:44;100963.60;;;11.91;63.46
42411;BME280;28056;51.112;0.984;2023-05-22T00:12:11;100961.91;;;12.00;64.23
42411;BME280;28056;51.112;0.984;2023-05-22T00:14:38;100961.86;;;12.50;63.46
42411;BME280;28056;51.112;0.984;2023-05-22T00:17:05;100960.61;;;11.82;64.92
42411;BME280;28056;51.112;0.984;2023-05-22T00:19:33;100964.49;;;11.37;67.17
42411;BME280;28056;51.112;0.984;2023-05-22T00:22:00;100969.26;;;13.26;63.57
42411;BME280;28056;51.112;0.984;2023-05-22T00:24:28;100965.40;;;12.34;65.78
42411;BME280;28056;51.112;0.984;2023-05-22T00:26:55;100968.53;;;11.82;67.72
42411;BME280;28056;51.112;0.984;2023-05-22T00:29:22;100969.86;;;12.04;66.87
42411;BME280;28056;51.112;0.984;2023-05-22T00:31:49;100970.91;;;12.28;65.76
42411;BME280;28056;51.112;0.984;2023-05-22T00:34:17;100967.21;;;12.32;66.24
42411;BME280;28056;51.112;0.984;2023-05-22T00:36:44;100964.42;;;12.20;66.55
42411;BME280;28056;51.112;0.984;2023-05-22T00:39:12;100962.27;;;11.76;67.78
42411;BME280;28056;51.112;0.984;2023-05-22T00:41:40;100963.84;;;12.40;65.34
42411;BME280;28056;51.112;0.984;2023-05-22T00:44:07;100964.09;;;11.57;69.15
42411;BME280;28056;51.112;0.984;2023-05-22T00:46:34;100957.11;;;12.50;66.87
42411;BME280;28056;51.112;0.984;2023-05-22T00:49:02;100953.53;;;12.09;67.23
42411;BME280;28056;51.112;0.984;2023-05-22T00:51:29;100946.96;;;11.65;68.23
42411;BME280;28056;51.112;0.984;2023-05-22T00:53:57;100945.41;;;11.70;69.26
42411;BME280;28056;51.112;0.984;2023-05-22T00:56:25;100944.86;;;11.80;67.75
42411;BME280;28056;51.112;0.984;2023-05-22T00:58:52;100949.81;;;11.92;68.29
42411;BME280;28056;51.112;0.984;2023-05-22T01:01:20;100947.42;;;11.83;67.64
42411;BME280;28056;51.112;0.984;2023-05-22T01:03:49;100945.49;;;11.60;67.72
42411;BME280;28056;51.112;0.984;2023-05-22T01:06:18;100940.76;;;11.41;69.50
42411;BME280;28056;51.112;0.984;2023-05-22T01:08:45;100938.38;;;11.56;68.82
42411;BME280;28056;51.112;0.984;2023-05-22T01:11:15;100936.76;;;11.18;69.22
42411;BME280;28056;51.112;0.984;2023-05-22T01:13:53;100936.52;;;10.89;70.17
42411;BME280;28056;51.112;0.984;2023-05-22T01:16:28;100930.33;;;11.02;71.01
42411;BME280;28056;51.112;0.984;2023-05-22T01:19:00;100930.29;;;11.54;69.06
42411;BME280;28056;51.112;0.984;2023-05-22T01:21:38;100931.64;;;12.37;66.14
42411;BME280;28056;51.112;0.984;2023-05-22T01:24:28;100932.15;;;12.84;64.03
42411;BME280;28056;51.112;0.984;2023-05-22T01:27:17;100930.04;;;12.37;64.81
42411;BME280;28056;51.112;0.984;2023-05-22T01:29:58;100930.98;;;12.44;65.05
42411;BME280;28056;51.112;0.984;2023-05-22T01:32:29;100926.65;;;13.28;63.21
42411;BME280;28056;51.112;0.984;2023-05-22T01:35:00;100932.92;;;12.58;64.07
42411;BME280;28056;51.112;0.984;2023-05-22T01:37:28;100930.25;;;12.33;63.77
42411;BME280;28056;51.112;0.984;2023-05-22T01:39:57;100927.13;;;11.80;65.48
42411;BME280;28056;51.112;0.984;2023-05-22T01:42:25;100931.26;;;11.96;65.41
42411;BME280;28056;51.112;0.984;2023-05-22T01:44:53;100930.56;;;11.84;64.76
42411;BME280;28056;51.112;0.984;2023-05-22T01:47:20;100926.71;;;12.38;64.22
42411;BME280;28056;51.112;0.984;2023-05-22T01:49:48;100922.20;;;13.20;62.92
42411;BME280;28056;51.112;0.984;2023-05-22T01:52:21;100921.21;;;12.21;64.31
42411;BME280;28056;51.112;0.984;2023-05-22T01:54:54;100918.67;;;12.24;64.25
42411;BME280;28056;51.112;0.984;2023-05-22T01:57:26;100916.76;;;13.30;62.24
42411;BME280;28056;51.112;0.984;2023-05-22T02:00:02;100918.87;;;11.88;65.29
42411;BME280;28056;51.112;0.984;2023-05-22T02:02:31;100920.18;;;12.23;64.47
42411;BME280;28056;51.112;0.984;2023-05-22T02:05:03;100917.49;;;11.62;66.44
42411;BME280;28056;51.112;0.984;2023-05-22T02:07:32;100916.42;;;12.32;64.30
42411;BME280;28056;51.112;0.984;2023-05-22T02:10:03;100914.83;;;11.80;66.61
42411;BME280;28056;51.112;0.984;2023-05-22T02:12:31;100911.51;;;12.25;64.49
42411;BME280;28056;51.112;0.984;2023-05-22T02:14:59;100914.92;;;11.94;66.99
42411;BME280;28056;51.112;0.984;2023-05-22T02:17:26;100915.31;;;11.95;66.27
42411;BME280;28056;51.112;0.984;2023-05-22T02:19:54;100918.89;;;12.25;65.12
42411;BME280;28056;51.112;0.984;2023-05-22T02:22:21;100917.64;;;12.01;65.44
42411;BME280;28056;51.112;0.984;2023-05-22T02:24:48;100919.63;;;12.11;64.55
42411;BME280;28056;51.112;0.984;2023-05-22T02:27:15;100917.31;;;12.37;64.23
42411;BME280;28056;51.112;0.984;2023-05-22T02:29:43;100913.33;;;12.66;63.01
42411;BME280;28056;51.112;0.984;2023-05-22T02:32:10;100917.31;;;12.17;64.92
42411;BME280;28056;51.112;0.984;2023-05-22T02:34:38;100917.76;;;12.26;64.80
42411;BME280;28056;51.112;0.984;2023-05-22T02:37:05;100921.02;;;12.33;63.82
42411;BME280;28056;51.112;0.984;2023-05-22T02:39:33;100920.01;;;12.97;63.04
42411;BME280;28056;51.112;0.984;2023-05-22T02:42:01;100917.77;;;12.55;63.68
42411;BME280;28056;51.112;0.984;2023-05-22T02:44:28;100916.30;;;12.74;63.08
42411;BME280;28056;51.112;0.984;2023-05-22T02:46:55;100908.83;;;13.36;62.30
42411;BME280;28056;51.112;0.984;2023-05-22T02:49:23;100914.84;;;12.28;63.75
42411;BME280;28056;51.112;0.984;2023-05-22T02:51:50;100914.85;;;11.91;64.47
42411;BME280;28056;51.112;0.984;2023-05-22T02:54:17;100913.67;;;12.06;63.97
42411;BME280;28056;51.112;0.984;2023-05-22T02:56:45;100906.63;;;13.01;62.01
42411;BME280;28056;51.112;0.984;2023-05-22T02:59:12;100906.05;;;13.28;61.12
42411;BME280;28056;51.112;0.984;2023-05-22T03:01:40;100901.33;;;13.09;61.59
42411;BME280;28056;51.112;0.984;2023-05-22T03:04:08;100901.57;;;12.80;61.80
42411;BME280;28056;51.112;0.984;2023-05-22T03:06:36;100901.32;;;12.49;62.45
42411;BME280;28056;51.112;0.984;2023-05-22T03:09:03;100898.80;;;13.04;61.46
42411;BME280;28056;51.112;0.984;2023-05-22T03:11:30;100897.78;;;12.14;63.38
42411;BME280;28056;51.112;0.984;2023-05-22T03:13:58;100897.09;;;12.63;62.87
42411;BME280;28056;51.112;0.984;2023-05-22T03:16:26;100898.31;;;12.26;64.99
42411;BME280;28056;51.112;0.984;2023-05-22T03:19:07;100896.88;;;11.92;65.27
42411;BME280;28056;51.112;0.984;2023-05-22T03:21:35;100894.60;;;11.86;65.24
42411;BME280;28056;51.112;0.984;2023-05-22T03:24:03;100894.29;;;12.12;64.98
42411;BME280;28056;51.112;0.984;2023-05-22T03:26:31;100892.65;;;12.04;65.04
42411;BME280;28056;51.112;0.984;2023-05-22T03:28:59;100895.29;;;11.71;65.29
42411;BME280;28056;51.112;0.984;2023-05-22T03:31:28;100896.69;;;11.34;67.91
42411;BME280;28056;51.112;0.984;2023-05-22T03:33:56;100899.81;;;11.55;67.32
42411;BME280;28056;51.112;0.984;2023-05-22T03:36:24;100899.75;;;11.64;66.61
42411;BME280;28056;51.112;0.984;2023-05-22T03:38:52;100905.42;;;10.91;69.28
42411;BME280;28056;51.112;0.984;2023-05-22T03:41:19;100906.17;;;10.96;69.35
42411;BME280;28056;51.112;0.984;2023-05-22T03:43:46;100905.87;;;11.13;69.31
42411;BME280;28056;51.112;0.984;2023-05-22T03:46:14;100903.30;;;10.88;70.56
42411;BME280;28056;51.112;0.984;2023-05-22T03:48:41;100903.19;;;10.65;71.02
42411;BME280;28056;51.112;0.984;2023-05-22T03:51:09;100902.47;;;10.47;71.64
42411;BME280;28056;51.112;0.984;2023-05-22T03:53:37;100901.29;;;10.68;70.80
42411;BME280;28056;51.112;0.984;2023-05-22T03:56:04;100902.22;;;10.65;71.03
42411;BME280;28056;51.112;0.984;2023-05-22T03:58:32;100899.81;;;10.65;72.94
42411;BME280;28056;51.112;0.984;2023-05-22T04:01:00;100904.01;;;10.75;72.31
42411;BME280;28056;51.112;0.984;2023-05-22T04:03:28;100904.61;;;10.15;73.46
42411;BME280;28056;51.112;0.984;2023-05-22T04:05:55;100904.11;;;10.43;73.55
42411;BME280;28056;51.112;0.984;2023-05-22T04:08:23;100898.44;;;9.86;74.26
42411;BME280;28056;51.112;0.984;2023-05-22T04:10:51;100897.18;;;10.31;73.88
42411;BME280;28056;51.112;0.984;2023-05-22T04:13:18;100897.64;;;10.63;74.08
42411;BME280;28056;51.112;0.984;2023-05-22T04:15:46;100898.46;;;10.60;73.70
42411;BME280;28056;51.112;0.984;2023-05-22T04:18:14;100897.26;;;9.83;75.39
42411;BME280;28056;51.112;0.984;2023-05-22T04:20:41;100896.10;;;9.98;76.30
42411;BME280;28056;51.112;0.984;2023-05-22T04:23:09;100893.92;;;10.44;75.60
42411;BME280;28056;51.112;0.984;2023-05-22T04:25:36;100895.10;;;10.01;76.96
42411;BME280;28056;51.112;0.984;2023-05-22T04:28:04;100895.83;;;9.83;77.28
42411;BME280;28056;51.112;0.984;2023-05-22T04:30:31;100898.29;;;10.62;74.99
42411;BME280;28056;51.112;0.984;2023-05-22T04:32:59;100896.76;;;10.41;75.82
42411;BME280;28056;51.112;0.984;2023-05-22T04:35:26;100899.36;;;10.55;75.25
42411;BME280;28056;51.112;0.984;2023-05-22T04:37:53;100901.57;;;10.18;75.12
42411;BME280;28056;51.112;0.984;2023-05-22T04:40:21;100899.03;;;10.15;76.25
42411;BME280;28056;51.112;0.984;2023-05-22T04:42:49;100900.99;;;9.96;77.04
42411;BME280;28056;51.112;0.984;2023-05-22T04:45:17;100899.26;;;9.99;77.68
42411;BME280;28056;51.112;0.984;2023-05-22T04:47:44;100898.86;;;9.97;78.41
42411;BME280;28056;51.112;0.984;2023-05-22T04:50:12;100894.14;;;9.84;78.38
42411;BME280;28056;51.112;0.984;2023-05-22T04:52:39;100898.30;;;10.02;78.39
42411;BME280;28056;51.112;0.984;2023-05-22T04:55:07;100896.68;;;10.03;77.94
42411;BME280;28056;51.112;0.984;2023-05-22T04:57:34;100895.55;;;9.76;79.07
42411;BME280;28056;51.112;0.984;2023-05-22T05:00:02;100898.96;;;9.78;78.98
42411;BME280;28056;51.112;0.984;2023-05-22T05:02:30;100897.46;;;10.13;77.00
42411;BME280;28056;51.112;0.984;2023-05-22T05:04:58;100896.33;;;9.97;77.47
42411;BME280;28056;51.112;0.984;2023-05-22T05:07:26;100895.22;;;9.92;77.57
42411;BME280;28056;51.112;0.984;2023-05-22T05:09:54;100896.27;;;10.23;76.72
42411;BME280;28056;51.112;0.984;2023-05-22T05:12:21;100900.48;;;10.31;77.70
42411;BME280;28056;51.112;0.984;2023-05-22T05:14:49;100899.84;;;10.04;76.83
42411;BME280;28056;51.112;0.984;2023-05-22T05:17:16;100899.23;;;10.46;75.93
42411;BME280;28056;51.112;0.984;2023-05-22T05:19:44;100899.85;;;10.26;76.12
42411;BME280;28056;51.112;0.984;2023-05-22T05:22:11;100901.50;;;10.17;76.71
42411;BME280;28056;51.112;0.984;2023-05-22T05:24:40;100905.97;;;10.22;77.43
42411;BME280;28056;51.112;0.984;2023-05-22T05:27:07;100905.52;;;10.71;76.58
42411;BME280;28056;51.112;0.984;2023-05-22T05:29:34;100909.15;;;10.35;76.97
42411;BME280;28056;51.112;0.984;2023-05-22T05:32:02;100915.22;;;10.33;77.76
42411;BME280;28056;51.112;0.984;2023-05-22T05:34:30;100918.74;;;10.52;77.02
42411;BME280;28056;51.112;0.984;2023-05-22T05:36:57;100922.04;;;11.07;75.79
42411;BME280;28056;51.112;0.984;2023-05-22T05:39:24;100923.69;;;10.50;77.18
42411;BME280;28056;51.112;0.984;2023-05-22T05:41:51;100923.29;;;10.01;77.10
42411;BME280;28056;51.112;0.984;2023-05-22T05:44:19;100922.62;;;10.68;77.31
42411;BME280;28056;51.112;0.984;2023-05-22T05:46:47;100921.10;;;10.70;76.36
42411;BME280;28056;51.112;0.984;2023-05-22T05:49:14;100922.58;;;10.99;76.40
42411;BME280;28056;51.112;0.984;2023-05-22T05:51:42;100928.22;;;10.62;76.98
42411;BME280;28056;51.112;0.984;2023-05-22T05:54:10;100933.67;;;10.91;76.26
42411;BME280;28056;51.112;0.984;2023-05-22T05:56:37;100930.99;;;11.00;76.52
42411;BME280;28056;51.112;0.984;2023-05-22T05:59:05;100929.22;;;10.24;77.66
42411;BME280;28056;51.112;0.984;2023-05-22T06:01:34;100924.29;;;11.10;75.50
42411;BME280;28056;51.112;0.984;2023-05-22T06:04:02;100925.59;;;9.79;80.17
42411;BME280;28056;51.112;0.984;2023-05-22T06:06:30;100920.90;;;10.37;78.92
42411;BME280;28056;51.112;0.984;2023-05-22T06:08:58;100928.32;;;10.54;78.65
42411;BME280;28056;51.112;0.984;2023-05-22T06:11:25;100926.45;;;10.70;77.28
42411;BME280;28056;51.112;0.984;2023-05-22T06:13:52;100928.74;;;10.57;76.89
42411;BME280;28056;51.112;0.984;2023-05-22T06:16:20;100931.96;;;9.78;78.18
42411;BME280;28056;51.112;0.984;2023-05-22T06:18:48;100932.55;;;11.04;77.88
42411;BME280;28056;51.112;0.984;2023-05-22T06:21:15;100929.82;;;11.21;76.33
42411;BME280;28056;51.112;0.984;2023-05-22T06:23:43;100925.75;;;10.65;76.17
42411;BME280;28056;51.112;0.984;2023-05-22T06:26:11;100930.74;;;10.57;76.89
42411;BME280;28056;51.112;0.984;2023-05-22T06:28:38;100933.06;;;10.35;77.62
42411;BME280;28056;51.112;0.984;2023-05-22T06:31:07;100932.54;;;10.81;76.66
42411;BME280;28056;51.112;0.984;2023-05-22T06:33:35;100933.51;;;10.74;76.81
42411;BME280;28056;51.112;0.984;2023-05-22T06:36:03;100936.85;;;11.39;74.32
42411;BME280;28056;51.112;0.984;2023-05-22T06:38:30;100942.12;;;12.22;72.76
42411;BME280;28056;51.112;0.984;2023-05-22T06:40:58;100946.11;;;11.53;74.07
42411;BME280;28056;51.112;0.984;2023-05-22T06:43:25;100949.87;;;12.23;72.19
42411;BME280;28056;51.112;0.984;2023-05-22T06:45:52;100952.71;;;12.56;71.52
42411;BME280;28056;51.112;0.984;2023-05-22T06:48:20;100953.21;;;12.51;70.65
42411;BME280;28056;51.112;0.984;2023-05-22T06:50:47;100955.32;;;11.91;70.66
42411;BME280;28056;51.112;0.984;2023-05-22T06:53:15;100961.31;;;13.11;71.98
42411;BME280;28056;51.112;0.984;2023-05-22T06:55:43;100965.20;;;11.97;71.21
42411;BME280;28056;51.112;0.984;2023-05-22T06:58:10;100967.45;;;12.56;69.84
42411;BME280;28056;51.112;0.984;2023-05-22T07:00:38;100968.17;;;11.51;72.73
42411;BME280;28056;51.112;0.984;2023-05-22T07:03:06;100969.46;;;12.43;70.95
42411;BME280;28056;51.112;0.984;2023-05-22T07:05:38;100968.26;;;12.51;71.05
42411;BME280;28056;51.112;0.984;2023-05-22T07:08:06;100968.75;;;12.89;70.19
42411;BME280;28056;51.112;0.984;2023-05-22T07:10:33;100964.89;;;11.86;71.37
42411;BME280;28056;51.112;0.984;2023-05-22T07:13:01;100970.50;;;11.39;72.67
42411;BME280;28056;51.112;0.984;2023-05-22T07:15:29;100970.38;;;12.71;71.77
42411;BME280;28056;51.112;0.984;2023-05-22T07:18:01;100966.77;;;12.39;70.89
42411;BME280;28056;51.112;0.984;2023-05-22T07:20:28;100967.22;;;12.50;71.83
42411;BME280;28056;51.112;0.984;2023-05-22T07:22:56;100965.63;;;12.19;70.47
42411;BME280;28056;51.112;0.984;2023-05-22T07:25:23;100965.20;;;12.55;70.62
42411;BME280;28056;51.112;0.984;2023-05-22T07:27:51;100964.74;;;11.47;74.94
42411;BME280;28056;51.112;0.984;2023-05-22T07:30:19;100962.68;;;12.11;73.95
42411;BME280;28056;51.112;0.984;2023-05-22T07:32:47;100965.09;;;12.07;75.70
42411;BME280;28056;51.112;0.984;2023-05-22T07:37:26;100967.22;;;12.30;73.49
42411;BME280;28056;51.112;0.984;2023-05-22T07:39:54;100969.02;;;12.02;74.30
42411;BME280;28056;51.112;0.984;2023-05-22T07:42:36;100978.94;;;11.75;74.79
42411;BME280;28056;51.112;0.984;2023-05-22T07:45:09;100983.93;;;12.15;73.11
42411;BME280;28056;51.112;0.984;2023-05-22T07:51:52;100983.05;;;12.87;72.55
42411;BME280;28056;51.112;0.984;2023-05-22T08:01:33;101003.34;;;13.57;69.84
42411;BME280;28056;51.112;0.984;2023-05-22T08:04:32;101002.46;;;12.56;71.41
42411;BME280;28056;51.112;0.984;2023-05-22T08:06:59;100995.10;;;13.27;68.08
42411;BME280;28056;51.112;0.984;2023-05-22T08:09:26;100999.58;;;13.73;66.32
42411;BME280;28056;51.112;0.984;2023-05-22T08:12:04;100997.90;;;13.92;64.91
42411;BME280;28056;51.112;0.984;2023-05-22T08:14:42;100996.35;;;14.34;64.57
42411;BME280;28056;51.112;0.984;2023-05-22T08:17:10;100999.43;;;14.74;64.70
42411;BME280;28056;51.112;0.984;2023-05-22T08:19:38;100997.71;;;15.35;64.26
42411;BME280;28056;51.112;0.984;2023-05-22T08:22:05;100996.71;;;15.46;62.91
42411;BME280;28056;51.112;0.984;2023-05-22T08:24:33;100992.36;;;15.56;62.76
42411;BME280;28056;51.112;0.984;2023-05-22T08:27:00;100994.04;;;14.78;61.59
42411;BME280;28056;51.112;0.984;2023-05-22T08:29:28;100997.73;;;16.18;60.04
42411;BME280;28056;51.112;0.984;2023-05-22T08:31:55;100995.28;;;16.31;60.71
42411;BME280;28056;51.112;0.984;2023-05-22T08:34:23;100991.99;;;15.24;60.46
42411;BME280;28056;51.112;0.984;2023-05-22T08:36:51;100997.32;;;15.09;63.29
42411;BME280;28056;51.112;0.984;2023-05-22T08:39:18;100995.16;;;14.34;64.16
42411;BME280;28056;51.112;0.984;2023-05-22T08:42:06;100999.12;;;13.71;65.49
42411;BME280;28056;51.112;0.984;2023-05-22T08:44:34;101000.15;;;14.14;63.16
42411;BME280;28056;51.112;0.984;2023-05-22T08:47:01;101001.40;;;13.17;67.50
42411;BME280;28056;51.112;0.984;2023-05-22T08:49:31;101000.54;;;13.54;69.27
42411;BME280;28056;51.112;0.984;2023-05-22T08:52:02;100994.49;;;13.90;66.68
42411;BME280;28056;51.112;0.984;2023-05-22T08:54:31;100998.19;;;13.68;66.69
42411;BME280;28056;51.112;0.984;2023-05-22T08:57:03;100999.14;;;12.91;67.20
42411;BME280;28056;51.112;0.984;2023-05-22T08:59:31;101006.27;;;12.71;71.93
42411;BME280;28056;51.112;0.984;2023-05-22T09:02:01;100998.97;;;12.95;69.92
42411;BME280;28056;51.112;0.984;2023-05-22T09:04:31;100995.77;;;13.62;70.52
42411;BME280;28056;51.112;0.984;2023-05-22T09:06:58;100994.60;;;13.43;67.65
42411;BME280;28056;51.112;0.984;2023-05-22T09:09:26;100993.72;;;13.84;66.25
42411;BME280;28056;51.112;0.984;2023-05-22T09:11:54;101002.01;;;14.02;72.05
42411;BME280;28056;51.112;0.984;2023-05-22T09:14:21;101000.18;;;14.65;67.27
42411;BME280;28056;51.112;0.984;2023-05-22T09:16:51;101003.86;;;14.73;67.04
42411;BME280;28056;51.112;0.984;2023-05-22T09:19:18;100999.21;;;14.76;66.02
42411;BME280;28056;51.112;0.984;2023-05-22T09:21:46;100999.77;;;14.80;66.46
42411;BME280;28056;51.112;0.984;2023-05-22T09:25:04;100998.07;;;14.67;68.68
42411;BME280;28056;51.112;0.984;2023-05-22T09:27:32;100995.12;;;14.34;67.18
42411;BME280;28056;51.112;0.984;2023-05-22T09:30:00;101000.58;;;14.41;66.45
42411;BME280;28056;51.112;0.984;2023-05-22T09:32:29;100998.87;;;14.45;67.82
42411;BME280;28056;51.112;0.984;2023-05-22T09:35:01;100999.05;;;15.09;68.92
42411;BME280;28056;51.112;0.984;2023-05-22T09:37:33;100997.83;;;15.11;64.25
42411;BME280;28056;51.112;0.984;2023-05-22T09:40:04;100999.26;;;15.93;63.31
42411;BME280;28056;51.112;0.984;2023-05-22T09:43:17;101000.95;;;15.15;65.33
42411;BME280;28056;51.112;0.984;2023-05-22T09:45:55;101004.58;;;15.52;62.75
42411;BME280;28056;51.112;0.984;2023-05-22T09:48:23;100999.86;;;15.34;63.63
42411;BME280;28056;51.112;0.984;2023-05-22T09:50:53;101003.56;;;15.96;67.14
42411;BME280;28056;51.112;0.984;2023-05-22T09:53:25;101002.42;;;16.86;58.94
42411;BME280;28056;51.112;0.984;2023-05-22T09:55:55;101012.27;;;17.43;60.51
42411;BME280;28056;51.112;0.984;2023-05-22T09:59:45;101013.24;;;16.57;59.26
42411;BME280;28056;51.112;0.984;2023-05-22T10:02:26;101003.75;;;15.50;60.14
42411;BME280;28056;51.112;0.984;2023-05-22T10:05:05;101007.21;;;15.22;61.39
42411;BME280;28056;51.112;0.984;2023-05-22T10:07:36;101005.60;;;14.39;65.37
42411;BME280;28056;51.112;0.984;2023-05-22T10:10:08;101009.11;;;14.41;66.57
42411;BME280;28056;51.112;0.984;2023-05-22T10:12:49;101009.44;;;14.49;65.30
42411;BME280;28056;51.112;0.984;2023-05-22T10:15:18;101007.64;;;14.45;64.02
42411;BME280;28056;51.112;0.984;2023-05-22T10:17:46;101005.66;;;14.38;67.62
42411;BME280;28056;51.112;0.984;2023-05-22T10:20:14;101005.54;;;14.88;65.24
42411;BME280;28056;51.112;0.984;2023-05-22T10:22:42;101007.78;;;14.67;65.72
42411;BME280;28056;51.112;0.984;2023-05-22T10:25:12;101007.59;;;14.55;65.89
42411;BME280;28056;51.112;0.984;2023-05-22T10:27:40;101003.75;;;14.50;66.16
42411;BME280;28056;51.112;0.984;2023-05-22T10:30:16;101002.29;;;14.64;66.11
42411;BME280;28056;51.112;0.984;2023-05-22T10:32:49;101001.40;;;14.65;66.18
42411;BME280;28056;51.112;0.984;2023-05-22T10:35:23;101001.94;;;15.35;63.98
42411;BME280;28056;51.112;0.984;2023-05-22T10:37:53;100997.68;;;15.18;64.46
42411;BME280;28056;51.112;0.984;2023-05-22T10:40:26;100990.00;;;15.38;65.28
42411;BME280;28056;51.112;0.984;2023-05-22T10:42:57;100987.85;;;15.59;65.93
42411;BME280;28056;51.112;0.984;2023-05-22T10:45:25;100986.59;;;15.92;65.22
42411;BME280;28056;51.112;0.984;2023-05-22T10:52:16;100988.28;;;15.92;62.92
42411;BME280;28056;51.112;0.984;2023-05-22T10:54:44;100987.56;;;14.88;64.58
42411;BME280;28056;51.112;0.984;2023-05-22T10:57:14;100981.50;;;15.38;68.09
42411;BME280;28056;51.112;0.984;2023-05-22T10:59:41;100982.59;;;15.67;62.31
42411;BME280;28056;51.112;0.984;2023-05-22T11:02:19;100987.74;;;16.55;67.92
42411;BME280;28056;51.112;0.984;2023-05-22T11:04:47;100984.03;;;18.27;62.08
42411;BME280;28056;51.112;0.984;2023-05-22T11:07:15;100990.01;;;17.45;60.13
42411;BME280;28056;51.112;0.984;2023-05-22T11:09:43;100989.21;;;17.34;58.35
42411;BME280;28056;51.112;0.984;2023-05-22T11:12:24;100985.50;;;17.13;59.59
42411;BME280;28056;51.112;0.984;2023-05-22T11:14:54;100990.53;;;17.21;60.40
42411;BME280;28056;51.112;0.984;2023-05-22T11:17:46;100993.06;;;17.75;58.76
42411;BME280;28056;51.112;0.984;2023-05-22T11:20:25;100995.61;;;17.68;60.45
42411;BME280;28056;51.112;0.984;2023-05-22T11:23:03;100991.20;;;16.72;57.76
42411;BME280;28056;51.112;0.984;2023-05-22T11:25:32;100992.68;;;16.69;60.23
42411;BME280;28056;51.112;0.984;2023-05-22T11:28:02;100997.04;;;17.24;61.46
42411;BME280;28056;51.112;0.984;2023-05-22T11:30:30;101001.06;;;17.27;60.54
42411;BME280;28056;51.112;0.984;2023-05-22T11:32:59;101001.31;;;18.63;56.69
42411;BME280;28056;51.112;0.984;2023-05-22T11:35:37;101005.02;;;17.30;57.62
42411;BME280;28056;51.112;0.984;2023-05-22T11:39:37;101007.08;;;17.81;58.04
42411;BME280;28056;51.112;0.984;2023-05-22T11:42:15;101008.81;;;17.05;57.43
42411;BME280;28056;51.112;0.984;2023-05-22T11:50:58;101008.78;;;16.01;59.14
42411;BME280;28056;51.112;0.984;2023-05-22T11:53:36;101015.29;;;15.17;60.86
42411;BME280;28056;51.112;0.984;2023-05-22T11:56:13;101020.50;;;15.98;60.11
42411;BME280;28056;51.112;0.984;2023-05-22T11:58:52;101024.78;;;15.50;62.28
42411;BME280;28056;51.112;0.984;2023-05-22T12:01:29;101026.84;;;15.20;60.97
42411;BME280;28056;51.112;0.984;2023-05-22T12:04:01;101021.70;;;15.28;60.76
42411;BME280;28056;51.112;0.984;2023-05-22T12:06:30;101022.87;;;16.18;61.90
42411;BME280;28056;51.112;0.984;2023-05-22T12:08:57;101023.65;;;15.16;60.35
42411;BME280;28056;51.112;0.984;2023-05-22T12:11:25;101023.74;;;15.55;61.65
42411;BME280;28056;51.112;0.984;2023-05-22T12:13:59;101023.87;;;15.45;60.21
42411;BME280;28056;51.112;0.984;2023-05-22T12:16:32;101021.42;;;15.04;63.14
42411;BME280;28056;51.112;0.984;2023-05-22T12:19:03;101022.59;;;14.63;63.96
42411;BME280;28056;51.112;0.984;2023-05-22T12:21:31;101026.06;;;15.03;63.40
42411;BME280;28056;51.112;0.984;2023-05-22T12:24:02;101025.98;;;15.54;62.65
42411;BME280;28056;51.112;0.984;2023-05-22T12:26:30;101019.02;;;14.65;63.49
42411;BME280;28056;51.112;0.984;2023-05-22T12:28:58;101017.57;;;14.74;63.77
42411;BME280;28056;51.112;0.984;2023-05-22T12:31:25;101016.06;;;14.78;64.38
42411;BME280;28056;51.112;0.984;2023-05-22T12:33:53;101017.48;;;14.93;64.69
42411;BME280;28056;51.112;0.984;2023-05-22T12:36:20;101014.68;;;14.46;65.49
42411;BME280;28056;51.112;0.984;2023-05-22T12:38:48;101011.40;;;14.82;66.12
42411;BME280;28056;51.112;0.984;2023-05-22T12:41:15;101012.78;;;15.54;63.83
42411;BME280;28056;51.112;0.984;2023-05-22T12:43:43;101013.40;;;15.49;63.94
42411;BME280;28056;51.112;0.984;2023-05-22T12:46:10;101013.57;;;15.15;63.46
42411;BME280;28056;51.112;0.984;2023-05-22T12:48:37;101016.94;;;15.64;62.76
42411;BME280;28056;51.112;0.984;2023-05-22T12:52:32;101017.30;;;16.04;61.86
42411;BME280;28056;51.112;0.984;2023-05-22T12:54:59;101016.67;;;15.75;62.85
42411;BME280;28056;51.112;0.984;2023-05-22T12:57:27;101020.35;;;16.47;61.14
42411;BME280;28056;51.112;0.984;2023-05-22T12:59:54;101016.30;;;15.82;61.03
42411;BME280;28056;51.112;0.984;2023-05-22T13:02:22;101012.85;;;16.43;58.29
42411;BME280;28056;51.112;0.984;2023-05-22T13:05:00;101010.84;;;17.30;58.73
42411;BME280;28056;51.112;0.984;2023-05-22T13:07:37;101014.36;;;16.93;58.38
42411;BME280;28056;51.112;0.984;2023-05-22T13:10:15;101011.54;;;18.00;58.06
42411;BME280;28056;51.112;0.984;2023-05-22T13:12:52;101015.92;;;17.72;55.22
42411;BME280;28056;51.112;0.984;2023-05-22T13:15:29;101010.49;;;16.78;56.50
42411;BME280;28056;51.112;0.984;2023-05-22T13:19:13;101014.87;;;17.76;56.31
42411;BME280;28056;51.112;0.984;2023-05-22T13:21:50;101011.24;;;16.18;57.30
42411;BME280;28056;51.112;0.984;2023-05-22T13:24:28;101015.17;;;16.36;59.82
42411;BME280;28056;51.112;0.984;2023-05-22T13:28:57;101011.88;;;17.31;59.90
42411;BME280;28056;51.112;0.984;2023-05-22T13:31:34;101013.08;;;16.78;59.40
42411;BME280;28056;51.112;0.984;2023-05-22T13:34:12;101013.85;;;16.39;59.62
42411;BME280;28056;51.112;0.984;2023-05-22T13:36:49;101018.42;;;17.85;57.49
42411;BME280;28056;51.112;0.984;2023-05-22T13:39:26;101010.10;;;18.06;56.96